Time,TemperatureF,DewpointF,PressureIn,WindDirection,WindDirectionDegrees,WindSpeedMPH,WindSpeedGustMPH,Humidity,HourlyPrecipIn,Conditions,Clouds,dailyrainin,SoftwareType,DateUTC
2013-05-24 00:04:00,41.5,36.1,29.31,North,0,0.0,0.0,81,0.00,RA,,0.00,WeatherDisplay:10.37,2013-05-24 06:04:00,
2013-05-24 00:09:00,41.5,36.1,29.31,North,0,0.0,0.0,81,0.00,CLR,,0.00,WeatherDisplay:10.37,2013-05-24 06:09:00,
2013-05-24 00:14:00,41.5,36.1,29.31,NE,45,0.0,0.0,81,0.00,CLR,,0.00,WeatherDisplay:10.37,2013-05-24 06:14:00,
2013-05-24 00:19:00,41.5,36.1,29.32,ENE,68,0.0,0.0,81,0.00,CLR,,0.00,WeatherDisplay:10.37,2013-05-24 06:19:00,
2013-05-24 00:24:00,41.4,36.0,29.32,NNW,338,0.0,0.0,81,0.00,CLR,,0.00,WeatherDisplay:10.37,2013-05-24 06:24:00,
2013-05-24 00:29:00,41.5,36.1,29.32,North,0,0.0,0.0,81,0.00,CLR,,0.00,WeatherDisplay:10.37,2013-05-24 06:29:00,
2013-05-24 00:34:00,41.5,36.1,29.32,NE,45,0.0,0.0,81,0.00,CLR,,0.00,WeatherDisplay:10.37,2013-05-24 06:34:00,
2013-05-24 00:39:00,41.5,36.1,29.33,NE,45,0.0,0.0,81,0.00,CLR,,0.00,WeatherDisplay:10.37,2013-05-24 06:39:00,
2013-05-24 00:44:00,41.5,36.1,29.33,NNW,338,0.0,0.0,81,0.00,CLR,,0.00,WeatherDisplay:10.37,2013-05-24 06:44:00,
2013-05-24 00:49:00,41.5,36.1,29.33,NNW,338,0.0,0.0,81,0.00,CLR,,0.00,WeatherDisplay:10.37,2013-05-24 06:49:00,
2013-05-24 00:54:00,41.5,36.1,29.33,ENE,68,0.0,0.0,81,0.00,CLR,,0.00,WeatherDisplay:10.37,2013-05-24 06:54:00,
2013-05-24 00:59:00,41.5,36.1,29.33,East,90,0.0,0.0,81,0.00,CLR,,0.00,WeatherDisplay:10.37,2013-05-24 06:59:00,
2013-05-24 01:04:00,41.4,36.0,29.33,ESE,112,0.0,0.0,81,0.03,RA,,0.03,WeatherDisplay:10.37,2013-05-24 07:04:00,
2013-05-24 01:09:00,41.4,36.0,29.33,ESE,112,0.0,0.0,81,0.03,RA,,0.03,WeatherDisplay:10.37,2013-05-24 07:09:00,
2013-05-24 01:14:00,41.4,36.0,29.33,ESE,112,0.0,0.0,81,0.03,,,0.03,WeatherDisplay:10.37,2013-05-24 07:14:00,
2013-05-24 01:19:00,41.5,36.1,29.31,East,90,0.0,0.0,81,0.03,CLR,,0.03,WeatherDisplay:10.37,2013-05-24 07:19:00,
2013-05-24 01:24:00,41.4,36.0,29.31,NNW,338,0.0,0.0,81,0.03,CLR,,0.03,WeatherDisplay:10.37,2013-05-24 07:24:00,
2013-05-24 01:29:00,41.4,36.0,29.31,North,0,0.0,0.0,81,0.03,CLR,,0.03,WeatherDisplay:10.37,2013-05-24 07:29:00,
2013-05-24 01:34:00,41.4,36.0,29.31,NE,45,0.0,0.0,81,0.03,CLR,,0.03,WeatherDisplay:10.37,2013-05-24 07:34:00,
2013-05-24 01:39:00,41.4,36.0,29.31,NNE,22,0.0,0.0,81,0.03,CLR,,0.03,WeatherDisplay:10.37,2013-05-24 07:39:00,
2013-05-24 01:44:00,41.4,36.0,29.31,ENE,68,0.0,0.0,81,0.03,CLR,,0.03,WeatherDisplay:10.37,2013-05-24 07:44:00,
2013-05-24 01:49:00,41.2,35.8,29.31,ENE,68,0.0,0.0,81,0.03,CLR,,0.03,WeatherDisplay:10.37,2013-05-24 07:49:00,
2013-05-24 01:54:00,41.0,35.6,29.31,ENE,68,0.0,0.0,81,0.03,CLR,,0.03,WeatherDisplay:10.37,2013-05-24 07:54:00,
2013-05-24 01:59:00,41.2,35.8,29.31,ENE,68,0.0,0.0,81,0.03,CLR,,0.03,WeatherDisplay:10.37,2013-05-24 07:59:00,
2013-05-24 02:04:00,41.2,35.8,29.31,ENE,68,0.0,0.0,81,0.00,CLR,,0.03,WeatherDisplay:10.37,2013-05-24 08:04:00,
2013-05-24 02:09:00,41.2,35.8,29.31,ENE,68,0.0,0.0,81,0.00,CLR,,0.03,WeatherDisplay:10.37,2013-05-24 08:09:00,
2013-05-24 02:14:00,41.0,35.6,29.31,SE,135,0.0,0.0,81,0.00,CLR,,0.03,WeatherDisplay:10.37,2013-05-24 08:14:00,
2013-05-24 02:19:00,41.2,35.8,29.28,ESE,112,0.0,0.0,81,0.00,CLR,,0.03,WeatherDisplay:10.37,2013-05-24 08:19:00,
2013-05-24 02:24:00,40.8,35.4,29.28,SW,225,0.0,0.1,81,0.00,CLR,,0.03,WeatherDisplay:10.37,2013-05-24 08:24:00,
2013-05-24 02:29:00,40.8,35.7,29.28,South,180,0.0,0.1,82,0.00,CLR,,0.03,WeatherDisplay:10.37,2013-05-24 08:29:00,
2013-05-24 02:34:00,40.8,35.7,29.28,WSW,248,0.0,0.0,82,0.00,CLR,,0.03,WeatherDisplay:10.37,2013-05-24 08:34:00,
2013-05-24 02:39:00,40.6,35.6,29.30,WSW,248,0.0,0.0,82,0.00,CLR,,0.03,WeatherDisplay:10.37,2013-05-24 08:39:00,
2013-05-24 02:44:00,40.6,35.6,29.30,ENE,68,0.0,0.0,82,0.00,CLR,,0.03,WeatherDisplay:10.37,2013-05-24 08:44:00,
2013-05-24 02:49:00,40.8,35.7,29.30,ESE,112,0.0,0.0,82,0.00,CLR,,0.03,WeatherDisplay:10.37,2013-05-24 08:49:00,
2013-05-24 02:54:00,40.6,35.6,29.30,North,0,0.0,0.0,82,0.00,CLR,,0.03,WeatherDisplay:10.37,2013-05-24 08:54:00,
2013-05-24 02:59:00,40.8,35.7,29.31,NNE,22,0.0,0.0,82,0.00,CLR,,0.03,WeatherDisplay:10.37,2013-05-24 08:59:00,
2013-05-24 03:04:00,41.0,35.9,29.31,North,0,0.0,0.0,82,0.00,CLR,,0.03,WeatherDisplay:10.37,2013-05-24 09:04:00,
2013-05-24 03:09:00,41.2,36.1,29.31,NNW,338,0.0,0.0,82,0.00,CLR,,0.03,WeatherDisplay:10.37,2013-05-24 09:09:00,
2013-05-24 03:14:00,41.2,36.1,29.31,NNW,338,0.0,0.0,82,0.00,CLR,,0.03,WeatherDisplay:10.37,2013-05-24 09:14:00,
2013-05-24 03:19:00,41.2,36.1,29.31,ENE,68,0.0,0.0,82,0.00,CLR,,0.03,WeatherDisplay:10.37,2013-05-24 09:19:00,
2013-05-24 03:24:00,41.0,35.9,29.31,North,0,0.0,0.0,82,0.00,CLR,,0.03,WeatherDisplay:10.37,2013-05-24 09:24:00,
2013-05-24 03:29:00,41.2,36.1,29.31,East,90,0.0,0.0,82,0.00,CLR,,0.03,WeatherDisplay:10.37,2013-05-24 09:29:00,
2013-05-24 03:34:00,41.0,35.9,29.31,ESE,112,0.0,0.0,82,0.00,CLR,,0.03,WeatherDisplay:10.37,2013-05-24 09:34:00,
2013-05-24 03:39:00,41.2,36.1,29.31,NNW,338,0.0,0.0,82,0.00,CLR,,0.03,WeatherDisplay:10.37,2013-05-24 09:39:00,
2013-05-24 03:44:00,41.2,36.1,29.31,NNW,338,0.0,0.0,82,0.00,CLR,,0.03,WeatherDisplay:10.37,2013-05-24 09:44:00,
2013-05-24 03:49:00,41.2,36.1,29.31,NE,45,0.0,0.0,82,0.00,CLR,,0.03,WeatherDisplay:10.37,2013-05-24 09:49:00,
2013-05-24 03:54:00,41.4,36.3,29.31,NNW,338,0.0,0.0,82,0.00,CLR,,0.03,WeatherDisplay:10.37,2013-05-24 09:54:00,
2013-05-24 03:59:00,41.4,36.3,29.32,North,0,0.0,0.0,82,0.00,CLR,,0.03,WeatherDisplay:10.37,2013-05-24 09:59:00,
2013-05-24 04:04:00,41.4,36.3,29.32,NE,45,0.0,0.0,82,0.00,CLR,,0.03,WeatherDisplay:10.37,2013-05-24 10:04:00,
2013-05-24 04:09:00,41.2,36.1,29.32,ENE,68,0.0,0.0,82,0.00,CLR,,0.03,WeatherDisplay:10.37,2013-05-24 10:09:00,
2013-05-24 04:14:00,41.2,36.1,29.32,North,0,0.0,0.0,82,0.00,CLR,,0.03,WeatherDisplay:10.37,2013-05-24 10:14:00,
2013-05-24 04:19:00,41.2,36.1,29.32,NE,45,0.0,0.0,82,0.00,CLR,,0.03,WeatherDisplay:10.37,2013-05-24 10:19:00,
2013-05-24 04:24:00,41.2,36.1,29.32,ENE,68,0.0,0.0,82,0.00,CLR,,0.03,WeatherDisplay:10.37,2013-05-24 10:24:00,
2013-05-24 04:29:00,41.0,35.9,29.32,NE,45,0.0,0.0,82,0.00,CLR,,0.03,WeatherDisplay:10.37,2013-05-24 10:29:00,
2013-05-24 04:34:00,41.0,35.9,29.32,NE,45,0.0,0.0,82,0.00,CLR,,0.03,WeatherDisplay:10.37,2013-05-24 10:34:00,
2013-05-24 04:39:00,41.2,36.1,29.33,North,0,0.0,0.0,82,0.00,CLR,,0.03,WeatherDisplay:10.37,2013-05-24 10:39:00,
2013-05-24 04:44:00,41.2,36.1,29.33,NE,45,0.0,0.0,82,0.00,CLR,,0.03,WeatherDisplay:10.37,2013-05-24 10:44:00,
2013-05-24 04:49:00,40.8,35.7,29.33,North,0,0.0,0.0,82,0.00,CLR,,0.03,WeatherDisplay:10.37,2013-05-24 10:49:00,
2013-05-24 04:54:00,40.8,35.7,29.33,NNE,22,0.0,0.0,82,0.00,CLR,,0.03,WeatherDisplay:10.37,2013-05-24 10:54:00,
2013-05-24 04:59:00,40.6,35.6,29.33,North,0,0.0,0.0,82,0.00,CLR,,0.03,WeatherDisplay:10.37,2013-05-24 10:59:00,
2013-05-24 05:04:00,40.6,35.6,29.33,NNW,338,0.0,0.0,82,0.00,CLR,,0.03,WeatherDisplay:10.37,2013-05-24 11:04:00,
2013-05-24 05:09:00,40.6,35.6,29.33,ENE,68,0.0,0.0,82,0.00,CLR,,0.03,WeatherDisplay:10.37,2013-05-24 11:09:00,
2013-05-24 05:14:00,40.6,35.6,29.33,North,0,0.0,0.0,82,0.00,CLR,,0.03,WeatherDisplay:10.37,2013-05-24 11:14:00,
2013-05-24 05:19:00,40.6,35.3,29.34,NNW,338,0.0,0.0,81,0.00,CLR,,0.03,WeatherDisplay:10.37,2013-05-24 11:19:00,
2013-05-24 05:24:00,40.5,35.1,29.34,East,90,0.0,0.0,81,0.00,CLR,,0.03,WeatherDisplay:10.37,2013-05-24 11:24:00,
2013-05-24 05:29:00,40.5,35.1,29.34,North,0,0.0,0.0,81,0.00,CLR,,0.03,WeatherDisplay:10.37,2013-05-24 11:29:00,
2013-05-24 05:34:00,40.1,34.7,29.34,East,90,0.0,0.0,81,0.00,CLR,,0.03,WeatherDisplay:10.37,2013-05-24 11:34:00,
2013-05-24 05:39:00,40.1,34.7,29.33,ESE,112,0.0,0.0,81,0.00,CLR,,0.03,WeatherDisplay:10.37,2013-05-24 11:39:00,
2013-05-24 05:44:00,39.7,34.4,29.33,East,90,0.0,0.0,81,0.00,CLR,,0.03,WeatherDisplay:10.37,2013-05-24 11:44:00,
2013-05-24 05:49:00,39.7,34.4,29.33,East,90,0.0,0.0,81,0.00,CLR,,0.03,WeatherDisplay:10.37,2013-05-24 11:49:00,
2013-05-24 05:54:00,39.7,34.4,29.33,NE,45,0.0,0.0,81,0.00,CLR,,0.03,WeatherDisplay:10.37,2013-05-24 11:54:00,
2013-05-24 05:59:00,39.7,34.4,29.34,NE,45,0.0,0.0,81,0.00,CLR,,0.03,WeatherDisplay:10.37,2013-05-24 11:59:00,
2013-05-24 06:04:00,39.7,34.4,29.34,ENE,68,0.0,0.0,81,0.00,CLR,,0.03,WeatherDisplay:10.37,2013-05-24 12:04:00,
2013-05-24 06:09:00,39.7,34.4,29.34,ENE,68,0.0,0.0,81,0.00,CLR,,0.03,WeatherDisplay:10.37,2013-05-24 12:09:00,
2013-05-24 06:14:00,39.7,34.7,29.34,North,0,0.0,0.0,82,0.00,CLR,,0.03,WeatherDisplay:10.37,2013-05-24 12:14:00,
2013-05-24 06:19:00,39.4,34.3,29.34,North,0,0.0,0.0,82,0.00,CLR,,0.03,WeatherDisplay:10.37,2013-05-24 12:19:00,
2013-05-24 06:24:00,39.4,34.3,29.34,ENE,68,0.0,0.0,82,0.00,CLR,,0.03,WeatherDisplay:10.37,2013-05-24 12:24:00,
2013-05-24 06:29:00,39.4,34.3,29.34,SW,225,0.0,0.0,82,0.00,CLR,,0.03,WeatherDisplay:10.37,2013-05-24 12:29:00,
2013-05-24 06:34:00,39.4,34.3,29.34,SSW,202,0.0,0.0,82,0.00,CLR,,0.03,WeatherDisplay:10.37,2013-05-24 12:34:00,
2013-05-24 06:39:00,39.2,34.2,29.35,ENE,68,0.0,0.0,82,0.00,CLR,,0.03,WeatherDisplay:10.37,2013-05-24 12:39:00,
2013-05-24 06:44:00,39.0,34.0,29.35,NE,45,0.0,0.0,82,0.00,CLR,,0.03,WeatherDisplay:10.37,2013-05-24 12:44:00,
2013-05-24 06:49:00,38.7,33.6,29.35,NNW,338,0.0,0.0,82,0.00,CLR,,0.03,WeatherDisplay:10.37,2013-05-24 12:49:00,
2013-05-24 06:54:00,38.7,33.6,29.35,North,0,0.0,0.0,82,0.00,CLR,,0.03,WeatherDisplay:10.37,2013-05-24 12:54:00,
2013-05-24 06:59:00,38.7,33.6,29.36,North,0,0.0,0.0,82,0.00,CLR,,0.03,WeatherDisplay:10.37,2013-05-24 12:59:00,
2013-05-24 07:04:00,38.5,33.5,29.36,North,0,0.0,0.0,82,0.00,CLR,,0.03,WeatherDisplay:10.37,2013-05-24 13:04:00,
2013-05-24 07:09:00,38.3,33.3,29.36,North,0,0.0,0.0,82,0.00,CLR,,0.03,WeatherDisplay:10.37,2013-05-24 13:09:00,
2013-05-24 07:14:00,38.3,33.3,29.36,West,270,0.0,0.0,82,0.00,CLR,,0.03,WeatherDisplay:10.37,2013-05-24 13:14:00,
2013-05-24 07:19:00,38.3,33.3,29.38,NW,315,0.0,0.0,82,0.00,CLR,,0.03,WeatherDisplay:10.37,2013-05-24 13:19:00,
2013-05-24 07:24:00,38.3,33.3,29.38,NNW,338,0.0,0.0,82,0.00,CLR,,0.03,WeatherDisplay:10.37,2013-05-24 13:24:00,
2013-05-24 07:29:00,38.3,33.3,29.38,NNW,338,0.0,0.0,82,0.00,CLR,,0.03,WeatherDisplay:10.37,2013-05-24 13:29:00,
2013-05-24 07:34:00,38.5,33.5,29.38,North,0,0.0,0.0,82,0.00,CLR,,0.03,WeatherDisplay:10.37,2013-05-24 13:34:00,
2013-05-24 07:39:00,38.5,33.5,29.37,WSW,248,0.0,0.0,82,0.00,CLR,,0.03,WeatherDisplay:10.37,2013-05-24 13:39:00,
2013-05-24 07:44:00,39.0,34.3,29.37,WNW,292,0.0,0.0,83,0.00,CLR,,0.03,WeatherDisplay:10.37,2013-05-24 13:44:00,
2013-05-24 07:49:00,39.2,34.5,29.37,NNE,22,0.0,0.0,83,0.00,CLR,,0.03,WeatherDisplay:10.37,2013-05-24 13:49:00,
2013-05-24 07:54:00,39.7,35.0,29.37,North,0,0.0,0.0,83,0.00,CLR,,0.03,WeatherDisplay:10.37,2013-05-24 13:54:00,
2013-05-24 07:59:00,40.1,35.4,29.37,NW,315,0.0,0.0,83,0.00,CLR,,0.03,WeatherDisplay:10.37,2013-05-24 13:59:00,
2013-05-24 08:04:00,40.1,35.0,29.37,SW,225,0.0,0.3,82,0.00,CLR,,0.03,WeatherDisplay:10.37,2013-05-24 14:04:00,
2013-05-24 08:09:00,40.5,35.4,29.37,NNW,338,0.0,0.5,82,0.00,CLR,,0.03,WeatherDisplay:10.37,2013-05-24 14:09:00,
2013-05-24 08:14:00,40.8,35.7,29.37,WNW,292,2.3,2.3,82,0.00,CLR,,0.03,WeatherDisplay:10.37,2013-05-24 14:14:00,
2013-05-24 08:19:00,40.8,35.4,29.37,NW,315,2.3,2.3,81,0.00,CLR,,0.03,WeatherDisplay:10.37,2013-05-24 14:19:00,
2013-05-24 08:24:00,41.2,35.8,29.37,WNW,292,3.5,3.5,81,0.00,CLR,,0.03,WeatherDisplay:10.37,2013-05-24 14:24:00,
2013-05-24 08:29:00,41.2,35.8,29.37,ENE,68,5.8,5.8,81,0.00,CLR,,0.03,WeatherDisplay:10.37,2013-05-24 14:29:00,
2013-05-24 08:34:00,41.4,36.0,29.37,NNE,22,8.1,8.1,81,0.00,CLR,,0.03,WeatherDisplay:10.37,2013-05-24 14:34:00,
2013-05-24 08:39:00,41.9,36.5,29.39,North,0,3.5,3.5,81,0.00,CLR,,0.03,WeatherDisplay:10.37,2013-05-24 14:39:00,
2013-05-24 08:44:00,42.1,36.4,29.39,SE,135,0.0,2.0,80,0.00,CLR,,0.03,WeatherDisplay:10.37,2013-05-24 14:44:00,
2013-05-24 08:49:00,42.6,36.9,29.39,NNW,338,0.0,0.8,80,0.00,CLR,,0.03,WeatherDisplay:10.37,2013-05-24 14:49:00,
2013-05-24 08:54:00,42.8,37.1,29.39,NE,45,5.8,5.8,80,0.00,CLR,,0.03,WeatherDisplay:10.37,2013-05-24 14:54:00,
2013-05-24 08:59:00,43.3,37.3,29.39,NE,45,2.3,2.9,79,0.00,CLR,,0.03,WeatherDisplay:10.37,2013-05-24 14:59:00,
2013-05-24 09:04:00,43.5,37.4,29.39,WSW,248,0.0,2.1,79,0.00,CLR,,0.03,WeatherDisplay:10.37,2013-05-24 15:04:00,
2013-05-24 09:09:00,43.7,37.6,29.39,East,90,4.6,4.6,79,0.00,CLR,,0.03,WeatherDisplay:10.37,2013-05-24 15:09:00,
2013-05-24 09:14:00,44.1,37.6,29.39,East,90,0.0,1.2,78,0.00,CLR,,0.03,WeatherDisplay:10.37,2013-05-24 15:14:00,
2013-05-24 09:19:00,44.2,37.8,29.41,ENE,68,2.3,2.3,78,0.00,CLR,,0.03,WeatherDisplay:10.37,2013-05-24 15:19:00,
2013-05-24 09:24:00,44.8,38.0,29.41,ENE,68,2.3,2.3,77,0.00,CLR,,0.03,WeatherDisplay:10.37,2013-05-24 15:24:00,
2013-05-24 09:29:00,44.8,38.0,29.41,North,0,8.1,8.1,77,0.00,CLR,,0.03,WeatherDisplay:10.37,2013-05-24 15:29:00,
2013-05-24 09:34:00,44.8,38.0,29.41,NW,315,3.5,3.5,77,0.00,CLR,,0.03,WeatherDisplay:10.37,2013-05-24 15:34:00,
2013-05-24 09:39:00,45.0,38.2,29.43,ENE,68,10.4,10.4,77,0.00,CLR,,0.03,WeatherDisplay:10.37,2013-05-24 15:39:00,
2013-05-24 09:44:00,45.1,38.0,29.43,SW,225,0.0,2.0,76,0.00,CLR,,0.03,WeatherDisplay:10.37,2013-05-24 15:44:00,
2013-05-24 09:49:00,45.5,38.4,29.43,NW,315,2.3,2.3,76,0.00,CLR,,0.03,WeatherDisplay:10.37,2013-05-24 15:49:00,
2013-05-24 09:54:00,45.9,38.7,29.43,North,0,4.6,4.6,76,0.00,CLR,,0.03,WeatherDisplay:10.37,2013-05-24 15:54:00,
2013-05-24 09:59:00,46.2,39.1,29.42,SSW,202,3.5,3.5,76,0.00,CLR,,0.03,WeatherDisplay:10.37,2013-05-24 15:59:00,
2013-05-24 10:04:00,46.8,39.6,29.42,NNW,338,0.0,0.9,76,0.00,CLR,,0.03,WeatherDisplay:10.37,2013-05-24 16:04:00,
2013-05-24 10:09:00,47.1,39.6,29.42,North,0,0.0,0.8,75,0.00,CLR,,0.03,WeatherDisplay:10.37,2013-05-24 16:09:00,
2013-05-24 10:14:00,48.0,40.5,29.42,NNE,22,0.0,0.2,75,0.00,CLR,,0.03,WeatherDisplay:10.37,2013-05-24 16:14:00,
2013-05-24 10:19:00,48.4,40.8,29.40,North,0,1.2,1.2,75,0.00,CLR,,0.03,WeatherDisplay:10.37,2013-05-24 16:19:00,
2013-05-24 10:24:00,48.6,41.0,29.40,NE,45,1.2,1.2,75,0.00,CLR,,0.03,WeatherDisplay:10.37,2013-05-24 16:24:00,
2013-05-24 10:29:00,48.7,41.2,29.40,WNW,292,2.3,2.3,75,0.00,CLR,,0.03,WeatherDisplay:10.37,2013-05-24 16:29:00,
2013-05-24 10:34:00,49.1,41.2,29.40,North,0,5.8,5.8,74,0.00,CLR,,0.03,WeatherDisplay:10.37,2013-05-24 16:34:00,
2013-05-24 10:39:00,49.1,41.2,29.42,East,90,0.0,0.7,74,0.00,CLR,,0.03,WeatherDisplay:10.37,2013-05-24 16:39:00,
2013-05-24 10:44:00,49.5,41.2,29.42,ESE,112,0.0,0.6,73,0.00,CLR,,0.03,WeatherDisplay:10.37,2013-05-24 16:44:00,
2013-05-24 10:49:00,49.8,41.5,29.42,SW,225,6.9,6.9,73,0.00,CLR,,0.03,WeatherDisplay:10.37,2013-05-24 16:49:00,
2013-05-24 10:54:00,50.2,41.5,29.42,North,0,0.0,2.3,72,0.00,CLR,,0.03,WeatherDisplay:10.37,2013-05-24 16:54:00,
2013-05-24 10:59:00,50.0,41.3,29.42,East,90,3.5,3.5,72,0.00,CLR,,0.03,WeatherDisplay:10.37,2013-05-24 16:59:00,
2013-05-24 11:04:00,50.4,41.7,29.42,ENE,68,2.3,2.3,72,0.00,CLR,,0.03,WeatherDisplay:10.37,2013-05-24 17:04:00,
2013-05-24 11:09:00,50.4,41.3,29.42,South,180,2.3,2.3,71,0.00,CLR,,0.03,WeatherDisplay:10.37,2013-05-24 17:09:00,
2013-05-24 11:14:00,50.9,41.8,29.42,ESE,112,5.8,5.8,71,0.00,CLR,,0.03,WeatherDisplay:10.37,2013-05-24 17:14:00,
2013-05-24 11:19:00,51.1,41.6,29.41,ENE,68,4.6,4.6,70,0.00,CLR,,0.03,WeatherDisplay:10.37,2013-05-24 17:19:00,
2013-05-24 11:24:00,51.4,42.0,29.41,NNE,22,1.2,1.6,70,0.00,CLR,,0.03,WeatherDisplay:10.37,2013-05-24 17:24:00,
2013-05-24 11:29:00,51.6,41.8,29.41,ESE,112,4.6,4.6,69,0.00,CLR,,0.03,WeatherDisplay:10.37,2013-05-24 17:29:00,
2013-05-24 11:34:00,52.0,42.1,29.41,SE,135,5.8,5.8,69,0.00,CLR,,0.03,WeatherDisplay:10.37,2013-05-24 17:34:00,
2013-05-24 11:39:00,52.0,41.7,29.42,ENE,68,8.1,8.1,68,0.00,CLR,,0.03,WeatherDisplay:10.37,2013-05-24 17:39:00,
2013-05-24 11:44:00,52.2,41.9,29.42,NW,315,0.0,2.3,68,0.00,CLR,,0.03,WeatherDisplay:10.37,2013-05-24 17:44:00,
2013-05-24 11:49:00,52.7,42.0,29.42,SW,225,1.2,1.3,67,0.00,CLR,,0.03,WeatherDisplay:10.37,2013-05-24 17:49:00,
2013-05-24 11:54:00,52.9,42.2,29.42,East,90,4.4,4.4,67,0.00,CLR,,0.03,WeatherDisplay:10.37,2013-05-24 17:54:00,
2013-05-24 12:00:00,53.1,42.0,29.42,SW,225,2.3,2.3,66,0.00,CLR,,0.03,WeatherDisplay:10.37,2013-05-24 18:00:00,
2013-05-24 12:05:00,53.1,42.0,29.42,East,90,2.3,2.3,66,0.00,CLR,,0.03,WeatherDisplay:10.37,2013-05-24 18:05:00,
2013-05-24 12:10:00,53.1,41.2,29.42,SE,135,3.5,3.5,64,0.00,CLR,,0.03,WeatherDisplay:10.37,2013-05-24 18:10:00,
2013-05-24 12:15:00,53.6,40.9,29.42,ENE,68,4.6,4.6,62,0.00,CLR,,0.03,WeatherDisplay:10.37,2013-05-24 18:15:00,
2013-05-24 12:20:00,53.8,41.1,29.41,SSE,158,8.1,8.1,62,0.00,CLR,,0.03,WeatherDisplay:10.37,2013-05-24 18:20:00,
2013-05-24 12:25:00,54.1,41.0,29.41,NE,45,2.3,2.8,61,0.00,CLR,,0.03,WeatherDisplay:10.37,2013-05-24 18:25:00,
2013-05-24 12:30:00,54.5,41.3,29.41,East,90,3.5,3.5,61,0.00,CLR,,0.03,WeatherDisplay:10.37,2013-05-24 18:30:00,
2013-05-24 12:35:00,55.6,42.3,29.41,NNE,22,2.0,2.0,61,0.00,CLR,,0.03,WeatherDisplay:10.37,2013-05-24 18:35:00,
2013-05-24 12:40:00,55.6,42.3,29.40,WSW,248,0.0,1.2,61,0.00,CLR,,0.03,WeatherDisplay:10.37,2013-05-24 18:40:00,
2013-05-24 12:45:00,55.8,42.1,29.40,ENE,68,5.8,5.8,60,0.00,CLR,,0.03,WeatherDisplay:10.37,2013-05-24 18:45:00,
2013-05-24 12:50:00,56.3,42.6,29.40,West,270,2.3,2.3,60,0.00,CLR,,0.03,WeatherDisplay:10.37,2013-05-24 18:50:00,
2013-05-24 12:55:00,57.0,43.7,29.40,WNW,292,1.2,1.2,61,0.00,CLR,,0.03,WeatherDisplay:10.37,2013-05-24 18:55:00,
2013-05-24 13:00:00,57.6,42.0,29.41,WNW,292,0.0,0.9,56,0.00,CLR,,0.03,WeatherDisplay:10.37,2013-05-24 19:00:00,
2013-05-24 13:05:00,58.1,43.4,29.41,ENE,68,2.3,2.3,58,0.00,CLR,,0.03,WeatherDisplay:10.37,2013-05-24 19:05:00,
2013-05-24 13:10:00,57.6,42.4,29.41,East,90,8.5,8.5,57,0.00,CLR,,0.03,WeatherDisplay:10.37,2013-05-24 19:10:00,
2013-05-24 13:15:00,57.4,42.7,29.41,NW,315,2.3,3.2,58,0.00,CLR,,0.03,WeatherDisplay:10.37,2013-05-24 19:15:00,
2013-05-24 13:20:00,57.2,42.1,29.39,WSW,248,3.5,3.5,57,0.00,CLR,,0.03,WeatherDisplay:10.37,2013-05-24 19:20:00,
2013-05-24 13:25:00,57.2,42.1,29.39,SW,225,1.2,1.2,57,0.00,CLR,,0.03,WeatherDisplay:10.37,2013-05-24 19:25:00,
2013-05-24 13:30:00,57.4,42.7,29.39,North,0,2.3,2.3,58,0.00,CLR,,0.03,WeatherDisplay:10.37,2013-05-24 19:30:00,
2013-05-24 13:35:00,58.1,43.4,29.39,East,90,3.5,3.5,58,0.00,CLR,,0.03,WeatherDisplay:10.37,2013-05-24 19:35:00,
2013-05-24 13:40:00,58.5,43.7,29.38,NNW,338,0.0,0.9,58,0.00,CLR,,0.03,WeatherDisplay:10.37,2013-05-24 19:40:00,
2013-05-24 13:45:00,58.6,43.9,29.38,NE,45,2.3,2.3,58,0.00,CLR,,0.03,WeatherDisplay:10.37,2013-05-24 19:45:00,
2013-05-24 13:50:00,58.8,43.6,29.38,East,90,0.0,0.9,57,0.00,CLR,,0.03,WeatherDisplay:10.37,2013-05-24 19:50:00,
2013-05-24 13:55:00,58.8,43.1,29.38,SE,135,3.5,3.5,56,0.00,CLR,,0.03,WeatherDisplay:10.37,2013-05-24 19:55:00,
2013-05-24 14:00:00,58.6,42.0,29.39,SSW,202,0.0,2.3,54,0.00,CLR,,0.03,WeatherDisplay:10.37,2013-05-24 20:00:00,
2013-05-24 14:05:00,58.1,42.0,29.39,East,90,10.6,10.6,55,0.00,CLR,,0.03,WeatherDisplay:10.37,2013-05-24 20:05:00,
2013-05-24 14:10:00,57.7,41.7,29.39,WSW,248,1.2,2.9,55,0.00,CLR,,0.03,WeatherDisplay:10.37,2013-05-24 20:10:00,
2013-05-24 14:15:00,57.7,42.1,29.39,SW,225,0.0,2.3,56,0.00,CLR,,0.03,WeatherDisplay:10.37,2013-05-24 20:15:00,
2013-05-24 14:20:00,57.7,41.7,29.40,NNE,22,2.3,2.3,55,0.00,CLR,,0.03,WeatherDisplay:10.37,2013-05-24 20:20:00,
2013-05-24 14:25:00,57.4,41.8,29.40,WSW,248,1.6,1.6,56,0.00,CLR,,0.03,WeatherDisplay:10.37,2013-05-24 20:25:00,
2013-05-24 14:30:00,57.7,42.1,29.40,SE,135,3.8,3.8,56,0.00,CLR,,0.03,WeatherDisplay:10.37,2013-05-24 20:30:00,
2013-05-24 14:35:00,57.9,42.3,29.40,WNW,292,8.1,8.1,56,0.00,CLR,,0.03,WeatherDisplay:10.37,2013-05-24 20:35:00,
2013-05-24 14:40:00,58.6,43.0,29.39,NNW,338,0.0,2.3,56,0.00,CLR,,0.03,WeatherDisplay:10.37,2013-05-24 20:40:00,
2013-05-24 14:45:00,59.2,43.5,29.39,North,0,0.0,0.9,56,0.00,CLR,,0.03,WeatherDisplay:10.37,2013-05-24 20:45:00,
2013-05-24 14:50:00,59.5,43.8,29.39,SE,135,1.2,1.2,56,0.00,CLR,,0.03,WeatherDisplay:10.37,2013-05-24 20:50:00,
2013-05-24 14:55:00,59.5,42.4,29.39,SSW,202,2.6,2.6,53,0.00,CLR,,0.03,WeatherDisplay:10.37,2013-05-24 20:55:00,
2013-05-24 15:00:00,60.1,43.4,29.38,SSE,158,2.5,2.5,54,0.00,CLR,,0.03,WeatherDisplay:10.37,2013-05-24 21:00:00,
2013-05-24 15:05:00,60.3,43.1,29.38,NNE,22,4.6,4.6,53,0.00,CLR,,0.03,WeatherDisplay:10.37,2013-05-24 21:05:00,
2013-05-24 15:10:00,60.3,42.6,29.38,North,0,4.7,4.7,52,0.00,CLR,,0.03,WeatherDisplay:10.37,2013-05-24 21:10:00,
2013-05-24 15:15:00,60.6,42.9,29.38,West,270,3.5,3.5,52,0.00,CLR,,0.03,WeatherDisplay:10.37,2013-05-24 21:15:00,
2013-05-24 15:20:00,60.6,41.9,29.38,WNW,292,4.6,4.6,50,0.00,CLR,,0.03,WeatherDisplay:10.37,2013-05-24 21:20:00,
2013-05-24 15:25:00,60.8,42.5,29.38,West,270,1.2,2.3,51,0.00,CLR,,0.03,WeatherDisplay:10.37,2013-05-24 21:25:00,
2013-05-24 15:30:00,61.5,43.7,29.38,WNW,292,3.5,3.5,52,0.00,CLR,,0.03,WeatherDisplay:10.37,2013-05-24 21:30:00,
2013-05-24 15:35:00,62.1,43.7,29.38,NNW,338,3.5,3.5,51,0.00,CLR,,0.03,WeatherDisplay:10.37,2013-05-24 21:35:00,
2013-05-24 15:40:00,61.7,42.9,29.37,WNW,292,6.9,6.9,50,0.00,CLR,,0.03,WeatherDisplay:10.37,2013-05-24 21:40:00,
2013-05-24 15:45:00,61.7,42.9,29.37,NW,315,0.0,1.4,50,0.00,CLR,,0.03,WeatherDisplay:10.37,2013-05-24 21:45:00,
2013-05-24 15:50:00,61.7,43.4,29.37,WSW,248,2.3,2.3,51,0.00,CLR,,0.03,WeatherDisplay:10.37,2013-05-24 21:50:00,
2013-05-24 15:55:00,61.7,43.4,29.37,NW,315,2.3,2.3,51,0.00,CLR,,0.03,WeatherDisplay:10.37,2013-05-24 21:55:00,
2013-05-24 16:00:00,62.2,42.8,29.36,WSW,248,4.7,4.7,49,0.00,CLR,,0.03,WeatherDisplay:10.37,2013-05-24 22:00:00,
2013-05-24 16:05:00,62.1,42.7,29.36,WNW,292,3.5,3.5,49,0.00,CLR,,0.03,WeatherDisplay:10.37,2013-05-24 22:05:00,
2013-05-24 16:10:00,61.9,43.5,29.36,South,180,0.0,1.4,51,0.00,CLR,,0.03,WeatherDisplay:10.37,2013-05-24 22:10:00,
2013-05-24 16:15:00,61.9,43.0,29.36,SSW,202,0.0,0.5,50,0.00,CLR,,0.03,WeatherDisplay:10.37,2013-05-24 22:15:00,
2013-05-24 16:20:00,62.1,43.7,29.34,NNW,338,0.0,0.0,51,0.00,CLR,,0.03,WeatherDisplay:10.37,2013-05-24 22:20:00,
2013-05-24 16:25:00,62.2,44.4,29.34,ENE,68,0.0,0.0,52,0.00,CLR,,0.03,WeatherDisplay:10.37,2013-05-24 22:25:00,
2013-05-24 16:30:00,62.8,44.9,29.34,North,0,0.0,0.0,52,0.00,CLR,,0.03,WeatherDisplay:10.37,2013-05-24 22:30:00,
2013-05-24 16:35:00,62.4,44.0,29.34,WNW,292,0.0,0.0,51,0.00,CLR,,0.03,WeatherDisplay:10.37,2013-05-24 22:35:00,
2013-05-24 16:40:00,62.6,43.7,29.35,ENE,68,0.0,0.2,50,0.00,CLR,,0.03,WeatherDisplay:10.37,2013-05-24 22:40:00,
2013-05-24 16:45:00,62.2,43.4,29.35,NE,45,0.0,0.5,50,0.00,CLR,,0.03,WeatherDisplay:10.37,2013-05-24 22:45:00,
2013-05-24 16:50:00,61.7,42.9,29.35,NNW,338,3.8,3.8,50,0.00,CLR,,0.03,WeatherDisplay:10.37,2013-05-24 22:50:00,
2013-05-24 16:55:00,61.2,42.4,29.35,ESE,112,2.3,2.3,50,0.00,CLR,,0.03,WeatherDisplay:10.37,2013-05-24 22:55:00,
2013-05-24 17:00:00,61.0,42.2,29.35,SSE,158,8.1,8.1,50,0.00,CLR,,0.03,WeatherDisplay:10.37,2013-05-24 23:00:00,
2013-05-24 17:05:00,61.2,42.4,29.35,East,90,5.8,5.8,50,0.00,CLR,,0.03,WeatherDisplay:10.37,2013-05-24 23:05:00,
2013-05-24 17:10:00,61.3,42.5,29.35,NW,315,0.0,1.3,50,0.00,CLR,,0.03,WeatherDisplay:10.37,2013-05-24 23:10:00,
2013-05-24 17:15:00,61.5,42.2,29.35,SSW,202,3.8,3.8,49,0.00,CLR,,0.03,WeatherDisplay:10.37,2013-05-24 23:15:00,
2013-05-24 17:20:00,61.5,41.6,29.34,NE,45,4.6,4.6,48,0.00,CLR,,0.03,WeatherDisplay:10.37,2013-05-24 23:20:00,
2013-05-24 17:25:00,61.3,41.5,29.34,SE,135,4.6,4.6,48,0.00,CLR,,0.03,WeatherDisplay:10.37,2013-05-24 23:25:00,
2013-05-24 17:30:00,61.3,40.9,29.34,SE,135,4.6,4.6,47,0.00,CLR,,0.03,WeatherDisplay:10.37,2013-05-24 23:30:00,
2013-05-24 17:35:00,61.5,41.6,29.34,SE,135,4.6,4.6,48,0.00,CLR,,0.03,WeatherDisplay:10.37,2013-05-24 23:35:00,
2013-05-24 17:40:00,62.1,42.1,29.31,ESE,112,8.1,8.1,48,0.00,CLR,,0.03,WeatherDisplay:10.37,2013-05-24 23:40:00,
2013-05-24 17:45:00,62.4,43.0,29.31,WNW,292,0.0,1.4,49,0.00,CLR,,0.03,WeatherDisplay:10.37,2013-05-24 23:45:00,
2013-05-24 17:50:00,62.8,43.3,29.31,SE,135,2.3,2.3,49,0.00,CLR,,0.03,WeatherDisplay:10.37,2013-05-24 23:50:00,
2013-05-24 17:55:00,62.8,42.2,29.31,NW,315,6.9,6.9,47,0.00,CLR,,0.03,WeatherDisplay:10.37,2013-05-24 23:55:00,
2013-05-24 18:00:00,62.8,42.8,29.31,NE,45,1.2,1.2,48,0.00,CLR,,0.03,WeatherDisplay:10.37,2013-05-25 00:00:00,
2013-05-24 18:05:00,62.8,42.8,29.31,ENE,68,0.0,0.2,48,0.00,CLR,,0.03,WeatherDisplay:10.37,2013-05-25 00:05:00,
2013-05-24 18:10:00,63.0,43.0,29.31,WSW,248,0.0,0.0,48,0.00,CLR,,0.03,WeatherDisplay:10.37,2013-05-25 00:10:00,
2013-05-24 18:15:00,63.1,43.1,29.31,SE,135,2.5,2.5,48,0.00,CLR,,0.03,WeatherDisplay:10.37,2013-05-25 00:15:00,
2013-05-24 18:20:00,63.5,42.9,29.33,NNE,22,2.3,2.3,47,0.00,CLR,,0.03,WeatherDisplay:10.37,2013-05-25 00:20:00,
2013-05-24 18:25:00,63.5,42.9,29.33,NW,315,0.0,1.2,47,0.00,CLR,,0.03,WeatherDisplay:10.37,2013-05-25 00:25:00,
2013-05-24 18:30:00,63.5,43.4,29.33,NNW,338,0.0,0.1,48,0.00,CLR,,0.03,WeatherDisplay:10.37,2013-05-25 00:30:00,
2013-05-24 18:35:00,63.5,43.4,29.33,North,0,0.0,0.0,48,0.00,CLR,,0.03,WeatherDisplay:10.37,2013-05-25 00:35:00,
2013-05-24 18:40:00,63.9,43.2,29.30,WNW,292,0.0,0.0,47,0.00,CLR,,0.03,WeatherDisplay:10.37,2013-05-25 00:40:00,
2013-05-24 18:45:00,63.7,43.1,29.30,SE,135,0.0,0.0,47,0.00,CLR,,0.03,WeatherDisplay:10.37,2013-05-25 00:45:00,
2013-05-24 18:50:00,63.9,42.7,29.30,SSW,202,0.0,0.3,46,0.00,CLR,,0.03,WeatherDisplay:10.37,2013-05-25 00:50:00,
2013-05-24 18:55:00,63.7,42.5,29.30,SE,135,0.0,0.5,46,0.00,CLR,,0.03,WeatherDisplay:10.37,2013-05-25 00:55:00,
2013-05-24 19:00:00,63.7,42.5,29.28,West,270,0.0,0.9,46,0.00,CLR,,0.03,WeatherDisplay:10.37,2013-05-25 01:00:00,
2013-05-24 19:05:00,63.3,42.2,29.28,NW,315,0.0,0.8,46,0.00,CLR,,0.03,WeatherDisplay:10.37,2013-05-25 01:05:00,
2013-05-24 19:10:00,63.0,42.4,29.28,East,90,3.5,3.5,47,0.00,CLR,,0.03,WeatherDisplay:10.37,2013-05-25 01:10:00,
2013-05-24 19:15:00,62.8,42.2,29.28,East,90,3.5,3.5,47,0.00,CLR,,0.03,WeatherDisplay:10.37,2013-05-25 01:15:00,
2013-05-24 19:20:00,62.2,41.7,29.28,East,90,3.5,3.5,47,0.00,CLR,,0.03,WeatherDisplay:10.37,2013-05-25 01:20:00,
2013-05-24 19:25:00,62.2,41.7,29.28,East,90,3.5,0.0,47,0.00,CLR,,0.03,WeatherDisplay:10.37,2013-05-25 01:25:00,
2013-05-24 19:30:00,61.9,41.4,29.28,East,90,0.0,0.0,47,0.00,CLR,,0.03,WeatherDisplay:10.37,2013-05-25 01:30:00,
2013-05-24 19:35:00,61.5,40.0,29.28,East,90,0.0,0.0,45,0.00,CLR,,0.03,WeatherDisplay:10.37,2013-05-25 01:35:00,
2013-05-24 19:40:00,61.0,40.0,29.29,East,90,0.0,0.0,46,0.00,CLR,,0.03,WeatherDisplay:10.37,2013-05-25 01:40:00,
2013-05-24 19:45:00,61.0,40.0,29.29,East,90,0.0,0.0,46,0.00,CLR,,0.03,WeatherDisplay:10.37,2013-05-25 01:45:00,
2013-05-24 19:50:00,60.3,39.4,29.29,East,90,0.0,0.0,46,0.00,CLR,,0.03,WeatherDisplay:10.37,2013-05-25 01:50:00,
2013-05-24 19:55:00,60.1,39.2,29.29,SSW,202,2.3,2.3,46,0.00,CLR,,0.03,WeatherDisplay:10.37,2013-05-25 01:55:00,
2013-05-24 20:00:00,59.7,38.3,29.29,SSW,202,2.3,2.3,45,0.00,CLR,,0.03,WeatherDisplay:10.37,2013-05-25 02:00:00,
2013-05-24 20:05:00,59.4,38.6,29.29,SW,225,4.6,4.6,46,0.00,CLR,,0.03,WeatherDisplay:10.37,2013-05-25 02:05:00,
2013-05-24 20:10:00,58.5,37.7,29.29,South,180,5.8,5.8,46,0.00,CLR,,0.03,WeatherDisplay:10.37,2013-05-25 02:10:00,
2013-05-24 20:15:00,58.1,38.0,29.29,SW,225,0.0,2.6,47,0.00,CLR,,0.03,WeatherDisplay:10.37,2013-05-25 02:15:00,
2013-05-24 20:20:00,57.2,37.7,29.31,West,270,4.6,4.6,48,0.00,CLR,,0.03,WeatherDisplay:10.37,2013-05-25 02:20:00,
2013-05-24 20:25:00,56.8,37.3,29.31,West,270,0.0,0.6,48,0.00,CLR,,0.03,WeatherDisplay:10.37,2013-05-25 02:25:00,
2013-05-24 20:30:00,55.9,36.5,29.31,SW,225,2.3,2.3,48,0.00,CLR,,0.03,WeatherDisplay:10.37,2013-05-25 02:30:00,
2013-05-24 20:35:00,55.6,36.7,29.31,SW,225,2.3,2.3,49,0.00,CLR,,0.03,WeatherDisplay:10.37,2013-05-25 02:35:00,
2013-05-24 20:40:00,54.9,36.0,29.32,NW,315,0.0,0.0,49,0.00,CLR,,0.03,WeatherDisplay:10.37,2013-05-25 02:40:00,
2013-05-24 20:45:00,54.1,35.9,29.32,SSE,158,0.0,0.0,50,0.00,CLR,,0.03,WeatherDisplay:10.37,2013-05-25 02:45:00,
2013-05-24 20:50:00,53.4,35.7,29.32,WSW,248,0.0,0.0,51,0.00,CLR,,0.03,WeatherDisplay:10.37,2013-05-25 02:50:00,
2013-05-24 20:55:00,52.9,35.7,29.32,WSW,248,0.0,0.1,52,0.00,CLR,,0.03,WeatherDisplay:10.37,2013-05-25 02:55:00,
2013-05-24 21:00:00,52.3,35.2,29.33,SE,135,0.0,0.3,52,0.00,CLR,,0.03,WeatherDisplay:10.37,2013-05-25 03:00:00,
2013-05-24 21:05:00,52.0,35.4,29.33,NNE,22,0.0,0.3,53,0.00,CLR,,0.03,WeatherDisplay:10.37,2013-05-25 03:05:00,
2013-05-24 21:10:00,51.4,35.3,29.33,South,180,1.2,1.2,54,0.00,CLR,,0.03,WeatherDisplay:10.37,2013-05-25 03:10:00,
2013-05-24 21:15:00,51.3,35.2,29.33,SSE,158,2.3,2.3,54,0.00,CLR,,0.03,WeatherDisplay:10.37,2013-05-25 03:15:00,
2013-05-24 21:20:00,50.5,34.5,29.34,WSW,248,0.0,0.1,54,0.00,CLR,,0.03,WeatherDisplay:10.37,2013-05-25 03:20:00,
2013-05-24 21:25:00,50.2,34.6,29.34,North,0,0.0,0.1,55,0.00,CLR,,0.03,WeatherDisplay:10.37,2013-05-25 03:25:00,
2013-05-24 21:30:00,50.2,35.1,29.34,NE,45,0.0,0.0,56,0.00,CLR,,0.03,WeatherDisplay:10.37,2013-05-25 03:30:00,
2013-05-24 21:35:00,49.8,35.2,29.34,SW,225,0.0,0.0,57,0.00,CLR,,0.03,WeatherDisplay:10.37,2013-05-25 03:35:00,
2013-05-24 21:40:00,49.5,34.8,29.35,WSW,248,0.0,0.0,57,0.00,CLR,,0.03,WeatherDisplay:10.37,2013-05-25 03:40:00,
2013-05-24 21:45:00,49.5,34.8,29.35,NNE,22,0.0,0.0,57,0.00,CLR,,0.03,WeatherDisplay:10.37,2013-05-25 03:45:00,
2013-05-24 21:50:00,49.3,35.1,29.35,ESE,112,0.0,0.0,58,0.00,CLR,,0.03,WeatherDisplay:10.37,2013-05-25 03:50:00,
2013-05-24 21:55:00,49.1,34.9,29.35,ENE,68,0.0,0.0,58,0.00,CLR,,0.03,WeatherDisplay:10.37,2013-05-25 03:55:00,
2013-05-24 22:00:00,49.1,34.9,29.36,WNW,292,0.0,0.0,58,0.00,CLR,,0.03,WeatherDisplay:10.37,2013-05-25 04:00:00,
2013-05-24 22:01:00,49.1,34.9,29.36,WNW,292,0.0,0.0,58,0.00,CLR,,0.03,WeatherDisplay:10.37,2013-05-25 04:01:00,
2013-05-24 22:02:00,49.1,35.4,29.36,North,0,0.0,0.0,59,0.00,CLR,,0.03,WeatherDisplay:10.37,2013-05-25 04:02:00,
2013-05-24 22:04:00,49.1,35.4,29.36,North,0,0.0,0.0,59,0.00,CLR,,0.03,WeatherDisplay:10.37,2013-05-25 04:04:00,
2013-05-24 22:09:00,49.1,35.4,29.36,NE,45,0.0,0.0,59,0.00,CLR,,0.03,WeatherDisplay:10.37,2013-05-25 04:09:00,
2013-05-24 22:14:00,48.9,35.2,29.36,NE,45,0.0,0.0,59,0.00,CLR,,0.03,WeatherDisplay:10.37,2013-05-25 04:14:00,
2013-05-24 22:19:00,48.7,35.5,29.36,NW,315,0.0,0.0,60,0.00,CLR,,0.03,WeatherDisplay:10.37,2013-05-25 04:19:00,
2013-05-24 22:24:00,48.7,35.5,29.36,WNW,292,0.0,0.0,60,0.00,CLR,,0.03,WeatherDisplay:10.37,2013-05-25 04:24:00,
2013-05-24 22:29:00,48.6,34.9,29.36,NW,315,0.0,0.0,59,0.00,CLR,,0.03,WeatherDisplay:10.37,2013-05-25 04:29:00,
2013-05-24 22:34:00,48.6,34.9,29.36,NW,315,0.0,0.0,59,0.00,CLR,,0.03,WeatherDisplay:10.37,2013-05-25 04:34:00,
2013-05-24 22:39:00,48.6,35.3,29.36,NE,45,0.0,0.0,60,0.00,CLR,,0.03,WeatherDisplay:10.37,2013-05-25 04:39:00,
2013-05-24 22:44:00,48.6,35.3,29.36,ENE,68,0.0,0.0,60,0.00,CLR,,0.03,WeatherDisplay:10.37,2013-05-25 04:44:00,
2013-05-24 22:49:00,48.4,35.1,29.36,NE,45,0.0,0.0,60,0.00,CLR,,0.03,WeatherDisplay:10.37,2013-05-25 04:49:00,
2013-05-24 22:54:00,48.4,35.1,29.36,ENE,68,0.0,0.0,60,0.00,CLR,,0.03,WeatherDisplay:10.37,2013-05-25 04:54:00,
2013-05-24 22:59:00,48.2,35.0,29.38,NE,45,0.0,0.0,60,0.00,CLR,,0.03,WeatherDisplay:10.37,2013-05-25 04:59:00,
2013-05-24 23:04:00,48.4,35.1,29.38,SE,135,0.0,0.0,60,0.00,CLR,,0.03,WeatherDisplay:10.37,2013-05-25 05:04:00,
2013-05-24 23:09:00,48.0,35.2,29.38,ESE,112,0.0,0.0,61,0.00,CLR,,0.03,WeatherDisplay:10.37,2013-05-25 05:09:00,
2013-05-24 23:14:00,48.0,35.2,29.38,East,90,0.0,0.0,61,0.00,CLR,,0.03,WeatherDisplay:10.37,2013-05-25 05:14:00,
2013-05-24 23:19:00,48.0,35.2,29.38,East,90,0.0,0.0,61,0.00,CLR,,0.03,WeatherDisplay:10.37,2013-05-25 05:19:00,
2013-05-24 23:24:00,47.8,35.0,29.38,SE,135,0.0,0.0,61,0.00,CLR,,0.03,WeatherDisplay:10.37,2013-05-25 05:24:00,
2013-05-24 23:29:00,47.8,35.4,29.38,NE,45,0.0,0.0,62,0.00,CLR,,0.03,WeatherDisplay:10.37,2013-05-25 05:29:00,
2013-05-24 23:34:00,47.7,35.3,29.38,NNE,22,0.0,0.0,62,0.00,CLR,,0.03,WeatherDisplay:10.37,2013-05-25 05:34:00,
2013-05-24 23:39:00,47.7,35.3,29.36,NE,45,0.0,0.0,62,0.00,CLR,,0.03,WeatherDisplay:10.37,2013-05-25 05:39:00,
2013-05-24 23:44:00,47.7,35.7,29.36,NE,45,0.0,0.0,63,0.00,CLR,,0.03,WeatherDisplay:10.37,2013-05-25 05:44:00,
2013-05-24 23:49:00,47.3,35.3,29.36,ENE,68,0.0,0.0,63,0.00,CLR,,0.03,WeatherDisplay:10.37,2013-05-25 05:49:00,
2013-05-24 23:54:00,47.1,35.2,29.36,NE,45,0.0,0.0,63,0.00,CLR,,0.03,WeatherDisplay:10.37,2013-05-25 05:54:00,
2013-05-24 23:59:00,47.3,35.3,29.37,NE,45,0.0,0.0,63,0.00,RA,,0.00,WeatherDisplay:10.37,2013-05-25 05:59:00,